Time;durP1;ratioP1;P1;durP2;ratioP2;P2;SDS_P1;SDS_P2;PMS_P1;PMS_P2;Temp;Humidity;BMP_temperature;BMP_pressure;BME280_temperature;BME280_humidity;BME280_pressure;Samples;Min_cycle;Max_cycle;Signal;HPM_P1;HPM_P2
2022/11/05 00:10:38;;;;;;;8.43;3.90;;;;;;;12.10;100.00;99897.88;5012523;28;20076;-66
2022/11/05 00:18:34;;;;;;;9.20;5.30;;;;;;;12.02;100.00;99902.66;5012561;28;20064;-66
2022/11/05 00:21:00;;;;;;;9.48;4.97;;;;;;;12.01;100.00;99900.91;5000329;28;20054;-65
2022/11/05 00:26:23;;;;;;;11.38;4.60;;;;;;;12.04;100.00;99908.81;4959858;28;20038;-65
2022/11/05 00:28:48;;;;;;;7.22;4.68;;;;;;;12.04;100.00;99903.47;4992804;28;20096;-65
2022/11/05 00:31:14;;;;;;;6.95;4.28;;;;;;;12.07;100.00;99910.47;4992797;28;20041;-66
2022/11/05 00:33:41;;;;;;;9.23;5.47;;;;;;;12.08;100.00;99918.41;4992362;28;20030;-65
2022/11/05 00:36:09;;;;;;;9.85;6.18;;;;;;;12.05;100.00;99912.31;4992681;28;20058;-65
2022/11/05 00:38:34;;;;;;;11.27;6.57;;;;;;;12.04;100.00;99916.78;4992633;28;20476;-65
2022/11/05 00:41:00;;;;;;;10.48;6.03;;;;;;;12.01;100.00;99911.56;4991664;28;20030;-65
2022/11/05 00:46:10;;;;;;;13.02;6.10;;;;;;;12.03;100.00;99920.38;4992563;28;20064;-63
2022/11/05 00:51:19;;;;;;;10.65;6.43;;;;;;;12.06;100.00;99920.25;4992691;28;20041;-65
2022/11/05 00:53:45;;;;;;;12.52;6.72;;;;;;;12.04;100.00;99916.78;4992311;28;20034;-64
2022/11/05 00:56:10;;;;;;;11.55;5.80;;;;;;;12.04;100.00;99922.13;4991612;28;20105;-65
2022/11/05 00:58:36;;;;;;;13.27;5.82;;;;;;;12.04;100.00;99921.25;4990995;28;20382;-66
2022/11/05 01:01:02;;;;;;;10.45;6.22;;;;;;;12.05;100.00;99926.53;4992366;28;20026;-66
2022/11/05 01:03:31;;;;;;;9.82;5.85;;;;;;;12.07;100.00;99924.66;4991916;28;20028;-66
2022/11/05 01:06:07;;;;;;;11.60;6.05;;;;;;;12.04;100.00;99924.78;4992165;28;20089;-66
2022/11/05 01:08:32;;;;;;;11.27;6.38;;;;;;;12.04;100.00;99927.47;4991889;28;20065;-66
2022/11/05 01:10:58;;;;;;;11.95;5.88;;;;;;;12.05;100.00;99930.97;4992214;28;20026;-66
2022/11/05 01:13:29;;;;;;;11.15;6.50;;;;;;;12.03;100.00;99931.03;4990343;28;20034;-66
2022/11/05 01:15:55;;;;;;;10.90;6.40;;;;;;;12.03;100.00;99944.38;4992082;28;20040;-66
2022/11/05 01:18:22;;;;;;;10.32;6.75;;;;;;;12.02;100.00;99945.31;4991914;28;20041;-65
2022/11/05 01:20:48;;;;;;;12.85;6.07;;;;;;;12.03;100.00;99941.69;4992118;28;20026;-66
2022/11/05 01:23:14;;;;;;;11.23;6.72;;;;;;;12.02;100.00;99945.31;4991910;28;20453;-67
2022/11/05 01:25:41;;;;;;;9.10;5.78;;;;;;;12.03;100.00;99947.03;4991296;28;20041;-66
2022/11/05 01:28:08;;;;;;;14.32;7.15;;;;;;;11.98;100.00;99954.34;4992007;28;20034;-67
2022/11/05 01:30:34;;;;;;;11.52;6.03;;;;;;;11.95;100.00;99949.13;4991995;28;20030;-67
2022/11/05 01:33:00;;;;;;;10.73;6.40;;;;;;;11.93;100.00;99951.88;4994224;28;20085;-66
2022/11/05 01:35:25;;;;;;;14.07;7.18;;;;;;;11.95;100.00;99954.47;4991652;28;20046;-67
2022/11/05 01:37:50;;;;;;;10.68;6.00;;;;;;;11.92;100.00;99946.59;4991782;28;20101;-67
2022/11/05 01:40:19;;;;;;;11.63;6.55;;;;;;;11.86;100.00;99941.50;4991331;28;20125;-66
2022/11/05 01:42:45;;;;;;;9.68;5.68;;;;;;;11.94;100.00;99958.91;4991705;28;20034;-66
2022/11/05 01:45:13;;;;;;;11.77;6.65;;;;;;;11.89;100.00;99960.88;4991452;28;20053;-67
2022/11/05 01:47:55;;;;;;;12.55;6.55;;;;;;;11.88;100.00;99958.28;4991305;28;20038;-66
2022/11/05 01:50:38;;;;;;;9.48;6.03;;;;;;;11.91;100.00;99958.16;4991252;28;20080;-67
2022/11/05 01:53:27;;;;;;;12.75;6.55;;;;;;;11.93;100.00;99960.81;4990082;28;20041;-66
2022/11/05 01:56:10;;;;;;;12.93;6.45;;;;;;;11.93;100.00;99958.97;4991246;28;20044;-66
2022/11/05 01:58:43;;;;;;;9.60;6.15;;;;;;;11.88;100.00;99966.28;4991401;28;20034;-66
2022/11/05 02:01:10;;;;;;;10.60;5.95;;;;;;;11.86;100.00;99963.69;4991346;28;20022;-63
2022/11/05 02:03:36;;;;;;;12.38;6.45;;;;;;;11.86;100.00;99954.84;4993006;28;20096;-64
2022/11/05 02:06:02;;;;;;;11.25;5.80;;;;;;;11.96;100.00;99972.19;4991105;28;20034;-63
2022/11/05 02:09:03;;;;;;;10.02;5.65;;;;;;;11.99;100.00;99972.09;4990505;28;20520;-63
2022/11/05 02:11:29;;;;;;;10.60;5.85;;;;;;;11.99;100.00;99977.41;4990612;28;20509;-63
2022/11/05 02:13:54;;;;;;;11.18;6.28;;;;;;;11.99;100.00;99982.75;4991121;28;20034;-63
2022/11/05 02:16:39;;;;;;;11.70;6.78;;;;;;;11.89;100.00;99960.88;4991347;28;20022;-63
2022/11/05 02:19:39;;;;;;;12.32;6.72;;;;;;;11.99;100.00;99987.22;4991036;28;20414;-63
2022/11/05 02:22:23;;;;;;;9.68;6.18;;;;;;;11.98;100.00;99985.47;4990869;28;20033;-62
2022/11/05 02:25:07;;;;;;;13.02;6.00;;;;;;;11.90;100.00;99977.75;4990949;28;20534;-62
2022/11/05 02:27:32;;;;;;;;;;;;;;;11.87;100.00;99983.22;4991562;28;20109;-63
2022/11/05 02:30:04;;;;;;;13.50;6.95;;;;;;;11.84;100.00;99978.00;4990841;28;20036;-62
2022/11/05 02:33:08;;;;;;;8.13;6.05;;;;;;;11.86;100.00;99989.47;4990699;28;20030;-63
2022/11/05 02:35:58;;;;;;;10.57;5.97;;;;;;;11.83;100.00;99992.25;4991025;28;20073;-63
2022/11/05 02:39:00;;;;;;;9.77;5.47;;;;;;;11.84;100.00;99994.00;4991179;28;20026;-63
2022/11/05 02:41:47;;;;;;;10.75;6.00;;;;;;;11.86;100.00;99998.31;4990902;28;20062;-63
2022/11/05 02:44:36;;;;;;;9.32;5.70;;;;;;;11.93;100.00;99993.63;4990798;28;20054;-63
2022/11/05 02:47:23;;;;;;;10.85;5.90;;;;;;;11.93;100.00;99994.50;4971344;28;20038;-62
2022/11/05 02:50:30;;;;;;;10.57;5.75;;;;;;;11.98;100.00;99989.00;4973467;28;20018;-62
2022/11/05 02:53:01;;;;;;;12.27;6.35;;;;;;;12.02;100.00;99992.41;5007041;28;20413;-62
2022/11/05 02:55:36;;;;;;;11.57;6.00;;;;;;;12.03;100.00;100000.34;5010344;28;20033;-63
2022/11/05 02:58:03;;;;;;;9.38;5.90;;;;;;;12.04;100.00;99999.44;5010309;28;20042;-64
2022/11/05 03:00:51;;;;;;;11.80;6.60;;;;;;;12.01;100.00;100006.69;4994029;28;20030;-63
2022/11/05 03:03:18;;;;;;;14.43;7.55;;;;;;;12.05;100.00;100002.94;4990414;28;20038;-63
2022/11/05 03:05:56;;;;;;;12.50;6.63;;;;;;;12.02;100.00;100014.63;4990733;28;20138;-63
2022/11/05 03:08:40;;;;;;;11.63;6.53;;;;;;;12.01;100.00;99999.53;4990440;28;20078;-63
2022/11/05 03:11:27;;;;;;;11.25;6.43;;;;;;;12.05;100.00;100011.81;4990046;28;20030;-63
2022/11/05 03:14:18;;;;;;;11.55;6.82;;;;;;;12.06;100.00;100013.56;4990527;28;20125;-63
2022/11/05 03:16:56;;;;;;;13.15;6.38;;;;;;;12.08;100.00;100018.81;4982416;28;20046;-63
2022/11/05 03:19:36;;;;;;;11.13;6.72;;;;;;;12.06;100.00;100016.22;4990573;28;20033;-63
2022/11/05 03:22:10;;;;;;;11.82;7.10;;;;;;;12.06;100.00;100016.22;4974843;28;20030;-63
2022/11/05 03:24:45;;;;;;;12.85;6.75;;;;;;;12.07;100.00;100011.78;4977715;28;20055;-63
2022/11/05 03:27:22;;;;;;;10.77;6.28;;;;;;;12.06;100.00;100026.88;4994172;28;20092;-64
2022/11/05 03:30:00;;;;;;;10.52;6.30;;;;;;;12.07;100.00;100023.31;4993632;28;20025;-63
2022/11/05 03:32:31;;;;;;;11.90;6.53;;;;;;;12.09;100.00;100025.91;4993882;28;20096;-63
2022/11/05 03:35:06;;;;;;;11.18;7.03;;;;;;;12.07;100.00;100033.97;4993788;28;20030;-64
2022/11/05 03:37:37;;;;;;;13.10;6.57;;;;;;;12.07;100.00;100039.31;4993982;28;20477;-63
2022/11/05 03:40:07;;;;;;;13.68;7.70;;;;;;;12.09;100.00;100037.47;4996114;28;20026;-64
2022/11/05 03:42:36;;;;;;;12.20;7.35;;;;;;;12.11;100.00;100051.56;4993512;28;20081;-64
2022/11/05 03:45:08;;;;;;;12.10;6.53;;;;;;;12.11;100.00;100040.91;4993680;28;20026;-63
2022/11/05 03:47:39;;;;;;;11.30;7.57;;;;;;;11.99;100.00;100041.41;4993688;28;20034;-63
2022/11/05 03:50:31;;;;;;;15.65;8.18;;;;;;;12.03;100.00;100052.78;4993493;28;20439;-63
2022/11/05 03:53:09;;;;;;;13.00;7.15;;;;;;;12.03;100.00;100064.34;4973858;28;20034;-63
2022/11/05 03:55:45;;;;;;;14.95;7.30;;;;;;;12.02;100.00;100072.38;4974151;28;20041;-63
2022/11/05 03:58:12;;;;;;;17.02;7.80;;;;;;;11.98;100.00;100079.63;4974096;28;20068;-63
2022/11/05 04:00:38;;;;;;;13.38;6.82;;;;;;;11.97;100.00;100075.22;4973947;28;20034;-63
2022/11/05 04:03:03;;;;;;;11.82;6.65;;;;;;;11.93;100.00;100079.81;4976621;28;20036;-64
2022/11/05 04:05:29;;;;;;;12.30;6.95;;;;;;;11.93;100.00;100080.75;4994386;28;20029;-63
2022/11/05 04:13:25;;;;;;;16.02;6.68;;;;;;;11.91;100.00;100086.97;4993532;28;20412;-63
2022/11/05 04:18:36;;;;;;;15.38;8.02;;;;;;;11.89;100.00;100094.16;4993287;28;20165;-64
2022/11/05 04:26:31;;;;;;;14.27;6.82;;;;;;;11.73;100.00;100070.78;4992861;28;20488;-63
2022/11/05 04:31:40;;;;;;;15.57;7.82;;;;;;;11.83;100.00;100093.50;4992380;28;20136;-64
2022/11/05 04:34:06;;;;;;;15.07;7.82;;;;;;;11.82;100.00;100097.13;4992997;28;20018;-64
2022/11/05 04:36:31;;;;;;;19.23;7.55;;;;;;;11.81;100.00;100090.06;4992291;28;20041;-63
2022/11/05 04:38:57;;;;;;;13.85;8.10;;;;;;;11.81;100.00;100100.72;4992659;28;20030;-64
2022/11/05 04:41:22;;;;;;;17.30;8.30;;;;;;;11.77;100.00;100104.41;4992706;28;20030;-64
2022/11/05 04:43:48;;;;;;;16.13;8.15;;;;;;;11.76;100.00;100108.84;4995043;28;20026;-64
2022/11/05 04:46:13;;;;;;;13.30;7.18;;;;;;;11.76;100.00;100118.66;4992484;28;20077;-64
2022/11/05 04:48:39;;;;;;;20.67;9.40;;;;;;;11.77;100.00;100120.41;4994769;28;20030;-64
2022/11/05 04:51:04;;;;;;;14.57;7.47;;;;;;;11.75;100.00;100119.56;4992315;28;20037;-64
2022/11/05 04:53:30;;;;;;;13.73;7.20;;;;;;;11.74;100.00;100125.84;4992605;28;20082;-64
2022/11/05 04:56:17;;;;;;;17.95;8.07;;;;;;;11.83;100.00;100128.16;4992261;28;20042;-66
2022/11/05 04:58:43;;;;;;;16.35;7.40;;;;;;;11.81;100.00;100122.88;4992346;28;20033;-65
2022/11/05 05:01:13;;;;;;;15.57;6.95;;;;;;;11.76;100.00;100135.50;4992154;28;20018;-65
2022/11/05 05:03:39;;;;;;;15.85;6.95;;;;;;;11.70;100.00;100133.06;4991279;28;20019;-64
2022/11/05 05:06:04;;;;;;;15.13;8.00;;;;;;;11.70;100.00;100126.84;4991844;28;20026;-64
2022/11/05 05:08:30;;;;;;;15.15;7.15;;;;;;;11.80;100.00;100137.16;4992082;28;20421;-64
2022/11/05 05:10:59;;;;;;;12.40;6.97;;;;;;;11.83;100.00;100141.47;4992060;28;20125;-64
2022/11/05 05:13:24;;;;;;;15.02;6.38;;;;;;;11.82;100.00;100143.31;4991550;28;20027;-65
2022/11/05 05:15:50;;;;;;;12.77;6.93;;;;;;;11.84;100.00;100156.56;4990837;28;20093;-64
2022/11/05 05:18:15;;;;;;;13.38;6.75;;;;;;;11.79;100.00;100155.88;4990300;28;20362;-65
2022/11/05 05:23:24;;;;;;;;;;;;;;;11.77;100.00;100157.69;4990482;28;20025;-64
2022/11/05 05:25:49;;;;;;;11.82;5.95;;;;;;;11.83;100.00;100163.69;4989526;28;19909;-65
2022/11/05 05:28:15;;;;;;;11.27;5.80;;;;;;;11.81;100.00;100170.84;4989297;28;20153;-64
2022/11/05 05:30:40;;;;;;;13.30;6.30;;;;;;;11.84;100.00;100175.22;4992808;28;20026;-65
2022/11/05 05:33:06;;;;;;;9.32;4.65;;;;;;;11.84;100.00;100170.75;4990954;28;20026;-64
2022/11/05 05:35:31;;;;;;;9.52;5.13;;;;;;;11.81;100.00;100173.53;4990621;28;20037;-64
2022/11/05 05:37:56;;;;;;;8.95;5.28;;;;;;;11.81;100.00;100180.66;4990570;28;20397;-65
2022/11/05 05:40:23;;;;;;;13.50;5.70;;;;;;;11.84;100.00;100188.56;4991659;28;20042;-64
2022/11/05 05:42:54;;;;;;;9.70;4.80;;;;;;;11.82;100.00;100190.41;4991049;28;20022;-65
2022/11/05 05:45:20;;;;;;;12.52;6.00;;;;;;;11.82;100.00;100187.72;4991071;28;20034;-65
2022/11/05 05:47:45;;;;;;;9.68;5.07;;;;;;;11.81;100.00;100197.50;4991331;28;20539;-64
2022/11/05 05:50:11;;;;;;;12.88;5.20;;;;;;;11.80;100.00;100189.56;4991284;28;20037;-64
2022/11/05 05:52:36;;;;;;;12.75;5.38;;;;;;;11.80;100.00;100190.44;4991390;28;20022;-64
2022/11/05 05:55:02;;;;;;;12.30;5.22;;;;;;;11.72;100.00;100188.97;4991117;28;20490;-64
2022/11/05 05:57:27;;;;;;;10.27;5.55;;;;;;;11.79;100.00;100201.16;4991204;28;20030;-64
2022/11/05 05:59:52;;;;;;;11.02;4.93;;;;;;;11.76;100.00;100206.59;4991215;28;20018;-64
2022/11/05 06:02:18;;;;;;;8.50;4.57;;;;;;;11.76;100.00;100209.28;4991087;28;20026;-65
2022/11/05 06:04:43;;;;;;;7.88;3.83;;;;;;;11.72;100.00;100213.81;4993668;28;20092;-64
2022/11/05 06:07:09;;;;;;;7.32;3.20;;;;;;;11.69;100.00;100218.38;4990824;28;20050;-64
2022/11/05 06:09:34;;;;;;;9.23;3.25;;;;;;;11.56;100.00;100219.69;4991499;28;20088;-64
2022/11/05 06:11:59;;;;;;;4.60;2.70;;;;;;;11.49;100.00;100228.78;4991736;28;20014;-64
2022/11/05 06:14:25;;;;;;;4.50;2.22;;;;;;;11.40;100.00;100221.13;4991373;28;20026;-64
2022/11/05 06:16:50;;;;;;;4.10;2.45;;;;;;;11.41;100.00;100229.06;4991051;28;20042;-64
2022/11/05 06:19:16;;;;;;;5.47;2.65;;;;;;;11.41;100.00;100233.50;4991421;28;20022;-64
2022/11/05 06:21:41;;;;;;;4.28;2.53;;;;;;;11.38;100.00;100238.94;4991078;28;20026;-64
2022/11/05 06:24:07;;;;;;;4.15;2.30;;;;;;;11.41;100.00;100238.84;4990989;28;20548;-64
2022/11/05 06:26:32;;;;;;;5.68;2.10;;;;;;;11.44;100.00;100244.94;4991013;28;20121;-64
2022/11/05 06:28:58;;;;;;;4.50;2.30;;;;;;;11.42;100.00;100245.88;4990860;28;20074;-65
2022/11/05 06:31:23;;;;;;;4.50;2.20;;;;;;;11.42;100.00;100256.53;4991132;28;20056;-64
2022/11/05 06:33:49;;;;;;;4.18;2.05;;;;;;;11.41;100.00;100258.34;4991070;28;20093;-64
2022/11/05 06:36:16;;;;;;;4.30;2.08;;;;;;;11.40;100.00;100259.25;4990807;28;20034;-64
2022/11/05 06:38:42;;;;;;;3.10;1.70;;;;;;;11.45;100.00;100265.31;4992031;28;20030;-64
2022/11/05 06:41:08;;;;;;;4.70;2.33;;;;;;;11.48;100.00;100272.34;4987598;28;20088;-64
2022/11/05 06:43:33;;;;;;;3.83;2.03;;;;;;;11.45;100.00;100275.13;4985139;28;20030;-64
2022/11/05 06:46:00;;;;;;;4.07;2.10;;;;;;;11.46;100.00;100274.19;4987964;28;20385;-65
2022/11/05 06:48:27;;;;;;;3.95;2.20;;;;;;;11.43;100.00;100280.47;4987689;28;20069;-64
2022/11/05 06:50:53;;;;;;;5.72;2.40;;;;;;;11.48;100.00;100277.69;4987643;28;20033;-64
2022/11/05 06:53:19;;;;;;;5.50;2.10;;;;;;;11.50;100.00;100283.81;4989020;28;20026;-64
2022/11/05 06:55:46;;;;;;;6.10;2.22;;;;;;;11.52;100.00;100289.97;4993026;28;20034;-63
2022/11/05 06:58:13;;;;;;;5.38;2.17;;;;;;;11.53;100.00;100297.06;4993496;28;20026;-63
2022/11/05 07:00:38;;;;;;;3.88;1.98;;;;;;;11.50;100.00;100291.78;4994496;28;20053;-63
2022/11/05 07:03:05;;;;;;;4.47;2.10;;;;;;;11.52;100.00;100311.28;5007356;28;20481;-63
2022/11/05 07:05:32;;;;;;;6.68;2.40;;;;;;;11.48;100.00;100315.81;4992401;28;20491;-63
2022/11/05 07:07:57;;;;;;;5.32;2.50;;;;;;;11.49;100.00;100308.72;4991767;28;20054;-63
2022/11/05 07:10:23;;;;;;;4.72;2.33;;;;;;;11.48;100.00;100315.81;4992012;28;20034;-63
2022/11/05 07:12:48;;;;;;;4.60;2.20;;;;;;;11.50;100.00;100318.44;4991373;28;20026;-63
2022/11/05 07:15:14;;;;;;;5.25;2.65;;;;;;;11.41;100.00;100321.41;4992475;28;20093;-63
2022/11/05 07:17:39;;;;;;;6.53;2.33;;;;;;;11.44;100.00;100323.97;4993229;28;20058;-63
2022/11/05 07:20:06;;;;;;;5.57;2.85;;;;;;;11.46;100.00;100330.13;4993875;28;20026;-63
2022/11/05 07:22:33;;;;;;;5.97;2.97;;;;;;;11.45;100.00;100331.06;4993924;28;20394;-63
2022/11/05 07:24:58;;;;;;;7.72;2.92;;;;;;;11.49;100.00;100332.69;4994132;28;20037;-63
2022/11/05 07:27:24;;;;;;;7.18;3.15;;;;;;;11.51;100.00;100336.19;4993706;28;20022;-63
2022/11/05 07:29:49;;;;;;;5.88;3.10;;;;;;;11.51;100.00;100345.06;4995999;28;20310;-63
2022/11/05 07:32:15;;;;;;;8.15;3.60;;;;;;;11.50;100.00;100345.06;4993803;28;20494;-63
2022/11/05 07:34:40;;;;;;;6.32;3.63;;;;;;;11.52;100.00;100348.56;4993467;28;20022;-63
2022/11/05 07:37:06;;;;;;;7.38;4.10;;;;;;;11.54;100.00;100350.28;4993552;28;20122;-62
2022/11/05 07:39:31;;;;;;;7.72;4.35;;;;;;;11.59;100.00;100350.13;4993122;28;20435;-63
2022/11/05 07:41:56;;;;;;;11.07;4.45;;;;;;;11.62;100.00;100355.34;4992485;28;20494;-63
2022/11/05 07:44:22;;;;;;;9.20;3.97;;;;;;;11.65;100.00;100366.81;4992822;28;20033;-63
2022/11/05 07:46:48;;;;;;;9.98;4.05;;;;;;;11.67;100.00;100359.66;4993020;28;20473;-63
2022/11/05 07:49:14;;;;;;;10.13;4.60;;;;;;;11.64;100.00;100365.09;4992003;28;20576;-63
2022/11/05 07:51:39;;;;;;;10.65;4.40;;;;;;;11.64;100.00;100365.09;4992718;28;20033;-63
2022/11/05 07:54:05;;;;;;;9.43;4.80;;;;;;;11.70;100.00;100375.56;4992755;28;20138;-63
2022/11/05 07:56:30;;;;;;;12.30;6.22;;;;;;;11.67;100.00;100366.78;4992678;28;20022;-64
2022/11/05 07:58:55;;;;;;;9.48;4.80;;;;;;;11.71;100.00;100387.09;4992942;28;20037;-64
2022/11/05 08:01:21;;;;;;;12.80;5.55;;;;;;;11.73;100.00;100386.09;4993281;28;20025;-64
2022/11/05 08:03:46;;;;;;;10.40;5.25;;;;;;;11.71;100.00;100387.94;4993001;28;20030;-64
2022/11/05 08:06:12;;;;;;;11.95;5.10;;;;;;;11.76;100.00;100396.66;4989467;28;20034;-64
2022/11/05 08:08:37;;;;;;;10.48;5.97;;;;;;;11.82;100.00;100395.59;4989440;28;20053;-64
2022/11/05 08:11:08;;;;;;;10.70;5.97;;;;;;;11.91;100.00;100400.63;4992850;28;20112;-64
2022/11/05 08:13:34;;;;;;;12.90;5.97;;;;;;;11.95;100.00;100396.97;4990499;28;20035;-64
2022/11/05 08:16:00;;;;;;;13.48;6.20;;;;;;;11.99;100.00;100398.63;4991202;28;20034;-64
2022/11/05 08:18:30;;;;;;;16.55;6.93;;;;;;;12.00;100.00;100403.03;4992528;28;20034;-64
2022/11/05 08:20:58;;;;;;;13.05;6.20;;;;;;;12.10;100.00;100401.81;4987667;28;20394;-64
2022/11/05 08:23:24;;;;;;;13.10;6.88;;;;;;;12.23;100.00;100412.94;4990584;28;20084;-64
2022/11/05 08:25:49;;;;;;;15.85;6.75;;;;;;;12.18;100.00;100407.75;4991607;28;20034;-64
2022/11/05 08:28:14;;;;;;;14.13;7.20;;;;;;;12.57;100.00;100410.91;4988151;28;20105;-64
2022/11/05 08:30:40;;;;;;;14.50;7.10;;;;;;;13.77;100.00;100413.56;4986383;28;20034;-64
2022/11/05 08:33:09;;;;;;;15.80;7.63;;;;;;;14.07;100.00;100415.00;4987415;28;20648;-64
2022/11/05 08:35:36;;;;;;;17.35;7.00;;;;;;;14.04;98.37;100418.69;4988896;28;20030;-64
2022/11/05 08:38:03;;;;;;;16.55;7.80;;;;;;;14.79;100.00;100409.28;4985225;28;20058;-64
2022/11/05 08:40:31;;;;;;;15.15;8.25;;;;;;;16.43;87.77;100414.91;4986706;28;20500;-70
2022/11/05 08:42:58;;;;;;;18.85;8.52;;;;;;;16.56;80.97;100415.19;4991149;28;20041;-68
2022/11/05 08:45:24;;;;;;;13.65;7.18;;;;;;;16.03;79.40;100408.91;4986315;28;20052;-64
2022/11/05 08:47:50;;;;;;;14.27;7.30;;;;;;;15.44;79.06;100420.63;4989709;28;20057;-65
2022/11/05 08:50:16;;;;;;;12.88;6.90;;;;;;;14.76;81.46;100427.28;4989113;28;20030;-65
2022/11/05 08:52:41;;;;;;;15.90;7.63;;;;;;;14.18;82.23;100432.34;4991458;28;20026;-65
2022/11/05 08:55:08;;;;;;;13.57;7.03;;;;;;;13.79;85.68;100433.09;4990144;28;20512;-66
2022/11/05 08:57:33;;;;;;;16.00;8.23;;;;;;;13.57;88.68;100437.50;4990791;28;20029;-64
2022/11/05 08:59:58;;;;;;;18.02;7.68;;;;;;;13.33;90.18;100438.44;4987429;28;20373;-65
2022/11/05 09:02:24;;;;;;;16.15;8.43;;;;;;;13.27;91.28;100443.97;4988286;28;20036;-63
2022/11/05 09:04:49;;;;;;;18.60;8.70;;;;;;;13.25;91.81;100441.38;4988341;28;20030;-64
2022/11/05 09:07:15;;;;;;;14.43;7.60;;;;;;;13.20;92.81;100438.88;4991173;28;20494;-64
2022/11/05 09:09:40;;;;;;;14.07;7.45;;;;;;;13.14;93.22;100439.13;4989884;28;20123;-64
2022/11/05 09:12:06;;;;;;;15.15;8.05;;;;;;;13.16;93.72;100445.25;4987452;28;20035;-64
2022/11/05 09:14:31;;;;;;;15.90;7.70;;;;;;;13.26;93.23;100447.59;4985257;28;20113;-65
2022/11/05 09:16:56;;;;;;;14.32;7.22;;;;;;;13.40;94.02;100450.63;4988488;28;20371;-63
2022/11/05 09:19:22;;;;;;;17.05;8.00;;;;;;;13.29;93.30;100436.78;4984973;28;20026;-65
2022/11/05 09:21:47;;;;;;;16.58;8.10;;;;;;;13.48;93.46;100445.84;4988294;28;20441;-65
2022/11/05 09:24:13;;;;;;;12.80;6.95;;;;;;;13.56;93.27;100447.31;4988887;28;20613;-64
2022/11/05 09:26:38;;;;;;;14.32;8.02;;;;;;;13.38;92.60;100452.50;4986019;28;20058;-64
2022/11/05 09:29:04;;;;;;;15.20;7.45;;;;;;;13.52;92.43;100444.81;4985328;28;20030;-65
2022/11/05 09:31:29;;;;;;;14.38;7.15;;;;;;;13.61;92.80;100456.03;4987961;28;20033;-63
2022/11/05 09:33:54;;;;;;;12.65;6.75;;;;;;;13.70;92.72;100466.41;4986827;28;20117;-64
2022/11/05 09:36:20;;;;;;;17.05;7.47;;;;;;;13.73;91.35;100457.38;4987884;28;20104;-64
2022/11/05 09:38:45;;;;;;;13.68;6.50;;;;;;;13.72;91.27;100469.00;5005406;28;20557;-64
2022/11/05 09:41:20;;;;;;;13.10;7.25;;;;;;;13.61;90.66;100465.84;4987577;28;20033;-64
2022/11/05 09:43:59;;;;;;;15.40;7.28;;;;;;;13.49;89.65;100474.34;4989093;28;20053;-64
2022/11/05 09:46:30;;;;;;;13.85;7.15;;;;;;;13.38;90.00;100474.72;4985668;28;20493;-64
2022/11/05 09:49:05;;;;;;;19.75;7.18;;;;;;;13.52;90.88;100474.22;4984957;28;20229;-63
2022/11/05 09:51:32;;;;;;;12.50;7.38;;;;;;;13.80;90.67;100478.47;4989431;28;20030;-65
2022/11/05 09:53:59;;;;;;;13.45;6.30;;;;;;;13.98;89.61;100476.88;4986410;28;20030;-66
2022/11/05 09:56:32;;;;;;;14.82;6.50;;;;;;;14.01;88.48;100479.44;4984803;28;20040;-65
2022/11/05 09:59:03;;;;;;;11.30;6.22;;;;;;;13.99;87.91;100470.59;4988792;28;20026;-63
2022/11/05 10:01:36;;;;;;;14.10;6.53;;;;;;;14.02;88.29;100478.53;4985162;28;20081;-64
2022/11/05 10:04:12;;;;;;;14.82;6.05;;;;;;;13.93;87.99;100473.53;4986729;28;20113;-65
2022/11/05 10:06:47;;;;;;;13.35;6.57;;;;;;;13.77;87.78;100478.56;4983108;28;20912;-64
2022/11/05 10:09:38;;;;;;;13.73;6.65;;;;;;;13.76;88.98;100475.97;4986661;28;20034;-65
2022/11/05 10:12:10;;;;;;;11.98;6.20;;;;;;;13.67;88.22;100468.31;4986090;28;20036;-62
2022/11/05 10:14:47;;;;;;;10.20;5.85;;;;;;;14.01;88.31;100488.34;4984897;28;20482;-62
2022/11/05 10:17:23;;;;;;;12.85;7.13;;;;;;;14.51;87.37;100486.34;4989643;28;20014;-63
2022/11/05 10:20:09;;;;;;;11.90;6.55;;;;;;;15.01;84.71;100493.13;4984134;28;20026;-63
2022/11/05 10:22:35;;;;;;;12.30;6.30;;;;;;;15.31;82.38;100486.44;4984193;28;20037;-65
2022/11/05 10:25:04;;;;;;;14.35;5.85;;;;;;;15.58;79.52;100490.56;4984188;28;20030;-66
2022/11/05 10:27:36;;;;;;;11.90;5.90;;;;;;;15.66;75.97;100495.59;4987529;28;20490;-65
2022/11/05 10:30:02;;;;;;;12.38;6.22;;;;;;;15.59;75.99;100496.81;4992667;28;20097;-65
2022/11/05 10:32:34;;;;;;;16.35;5.85;;;;;;;15.31;77.56;100505.19;4993541;28;20030;-65
2022/11/05 10:35:02;;;;;;;14.95;5.68;;;;;;;15.08;79.00;100510.69;4989812;28;20037;-65
2022/11/05 10:37:30;;;;;;;9.73;5.47;;;;;;;15.05;79.83;100513.50;4990779;28;20036;-64
2022/11/05 10:39:55;;;;;;;12.95;5.45;;;;;;;14.92;80.25;100512.28;4989070;28;20026;-65
2022/11/05 10:42:52;;;;;;;11.88;5.95;;;;;;;15.05;81.18;100509.94;4994366;28;20591;-65
2022/11/05 10:45:39;;;;;;;10.68;4.85;;;;;;;15.31;80.59;100507.88;4991012;28;20033;-65
2022/11/05 10:48:04;;;;;;;10.30;5.70;;;;;;;15.70;77.12;100511.47;4987583;28;20092;-65
2022/11/05 10:50:30;;;;;;;11.68;4.70;;;;;;;16.31;74.54;100489.84;4986849;28;20038;-66
2022/11/05 10:53:10;;;;;;;13.45;4.82;;;;;;;17.68;71.96;100513.22;4985878;28;20033;-65
2022/11/05 10:55:40;;;;;;;8.27;4.50;;;;;;;18.71;65.12;100499.34;4985773;28;20022;-65
2022/11/05 10:58:16;;;;;;;8.93;4.15;;;;;;;19.05;61.47;100504.50;4987228;28;20443;-67
2022/11/05 11:00:44;;;;;;;6.47;3.88;;;;;;;18.92;59.34;100495.38;4985603;28;20034;-65
2022/11/05 11:03:33;;;;;;;6.03;3.15;;;;;;;18.60;60.03;100509.88;4988343;28;20160;-66
2022/11/05 11:06:02;;;;;;;7.63;3.97;;;;;;;18.44;62.12;100504.50;4986651;28;20465;-65
2022/11/05 11:08:31;;;;;;;6.18;3.63;;;;;;;18.59;61.53;100505.44;4988069;28;20076;-65
2022/11/05 11:11:01;;;;;;;6.40;3.58;;;;;;;19.52;62.63;100497.13;4987788;28;20309;-66
2022/11/05 11:13:53;;;;;;;6.70;3.10;;;;;;;20.29;55.36;100495.81;4986951;28;20026;-65
2022/11/05 11:16:24;;;;;;;5.70;3.13;;;;;;;20.97;55.12;100501.19;4987921;28;20031;-66
2022/11/05 11:18:57;;;;;;;4.40;2.72;;;;;;;21.27;50.55;100504.56;4986008;28;20037;-64
2022/11/05 11:21:23;;;;;;;6.53;3.15;;;;;;;21.37;51.31;100497.50;4987466;28;20500;-65
2022/11/05 11:24:05;;;;;;;6.63;2.85;;;;;;;21.68;50.73;100507.97;4987559;28;20286;-65
2022/11/05 11:26:36;;;;;;;9.10;3.28;;;;;;;21.59;50.66;100508.59;4987997;28;20032;-66
2022/11/05 11:29:17;;;;;;;6.57;2.95;;;;;;;21.19;49.55;100504.19;4986246;28;20113;-65
2022/11/05 11:31:43;;;;;;;7.07;2.97;;;;;;;21.39;50.24;100491.03;4985817;28;20113;-65
2022/11/05 11:34:32;;;;;;;5.65;3.50;;;;;;;21.55;50.19;100498.94;4975408;28;20100;-66
2022/11/05 11:37:13;;;;;;;7.60;3.17;;;;;;;21.65;48.24;100500.03;4985386;28;20027;-65
2022/11/05 11:39:39;;;;;;;6.43;2.53;;;;;;;21.55;49.51;100501.63;4985638;28;20026;-65
2022/11/05 11:42:13;;;;;;;7.28;2.83;;;;;;;21.22;48.11;100504.00;4984886;28;20042;-65
2022/11/05 11:44:41;;;;;;;4.70;2.70;;;;;;;21.28;49.34;100503.56;4985246;28;20042;-65
2022/11/05 11:47:17;;;;;;;4.63;2.45;;;;;;;21.15;49.97;100503.56;4985036;28;20379;-65
2022/11/05 11:49:49;;;;;;;6.97;3.00;;;;;;;21.18;50.85;100507.88;4985093;28;20135;-65
2022/11/05 11:52:35;;;;;;;6.00;2.67;;;;;;;21.32;49.13;100508.66;4986124;28;20030;-65
2022/11/05 11:55:09;;;;;;;5.95;2.90;;;;;;;21.22;49.17;100515.66;4986282;28;20037;-68
2022/11/05 11:57:46;;;;;;;6.00;2.92;;;;;;;20.81;49.83;100515.72;4987480;28;20030;-67
2022/11/05 12:00:13;;;;;;;8.10;2.90;;;;;;;20.44;51.21;100512.84;4985781;28;20173;-66
2022/11/05 12:02:50;;;;;;;7.25;3.30;;;;;;;19.59;51.45;100514.66;4986014;28;20059;-66
2022/11/05 12:05:26;;;;;;;5.28;2.60;;;;;;;19.34;53.55;100504.50;4980402;28;20469;-68
2022/11/05 12:08:15;;;;;;;5.47;2.13;;;;;;;19.96;52.30;100516.84;4980115;28;20661;-66
2022/11/05 12:11:07;;;;;;;7.53;2.05;;;;;;;20.38;50.08;100515.94;4982724;28;20030;-67
2022/11/05 12:13:48;;;;;;;4.78;1.73;;;;;;;19.92;50.44;100506.31;4973424;28;20215;-67